Time;durP1;ratioP1;P1;durP2;ratioP2;P2;SDS_P1;SDS_P2;PMS_P1;PMS_P2;Temp;Humidity;BMP_temperature;BMP_pressure;BME280_temperature;BME280_humidity;BME280_pressure;Samples;Min_cycle;Max_cycle;Signal;HPM_P1;HPM_P2
2022/03/26 05:09:21;;;;;;;36.22;17.77;;;;;;;;;;5000371;28;20408;-81
2022/03/26 05:11:47;;;;;;;34.90;16.70;;;;;;;;;;4969176;28;20034;-82
2022/03/26 05:14:13;;;;;;;36.60;18.73;;;;;;;;;;4983320;28;20041;-77
2022/03/26 05:16:38;;;;;;;37.22;17.27;;;;;;;;;;5006292;28;20341;-82
2022/03/26 05:19:04;;;;;;;40.63;18.23;;;;;;;;;;4998100;28;20058;-79
2022/03/26 05:21:29;;;;;;;35.22;17.75;;;;;;;;;;4983871;28;20118;-82
2022/03/26 05:23:55;;;;;;;44.35;18.52;;;;;;;;;;5001632;28;20073;-82
2022/03/26 05:26:22;;;;;;;35.05;17.95;;;;;;;;;;4997414;28;20030;-79
2022/03/26 05:28:48;;;;;;;37.58;18.30;;;;;;;;;;4998606;28;20066;-78
2022/03/26 05:31:14;;;;;;;45.30;18.85;;;;;;;;;;4996330;28;20172;-79
2022/03/26 05:33:39;;;;;;;33.92;18.35;;;;;;;;;;4997306;28;20141;-79
2022/03/26 05:36:05;;;;;;;40.25;18.10;;;;;;;;;;4995387;28;20031;-79
2022/03/26 05:38:31;;;;;;;37.83;18.65;;;;;;;;;;4997021;28;20046;-79
2022/03/26 05:40:56;;;;;;;36.35;17.50;;;;;;;;;;4997317;28;20036;-79
2022/03/26 05:43:23;;;;;;;34.67;17.75;;;;;;;;;;4997023;28;20057;-79
2022/03/26 05:45:50;;;;;;;44.63;18.35;;;;;;;;;;4997513;28;20113;-79
2022/03/26 05:48:16;;;;;;;34.83;18.40;;;;;;;;;;5014709;28;20041;-80
2022/03/26 05:50:42;;;;;;;35.47;17.52;;;;;;;;;;5018320;28;20026;-80
2022/03/26 05:53:07;;;;;;;46.60;19.25;;;;;;;;;;5001928;28;20037;-82
2022/03/26 05:55:33;;;;;;;45.90;17.63;;;;;;;;;;5000130;28;20583;-82
2022/03/26 05:57:58;;;;;;;41.72;17.52;;;;;;;;;;5009508;28;20026;-80
2022/03/26 06:00:23;;;;;;;42.95;18.25;;;;;;;;;;5001072;28;20030;-82
2022/03/26 06:02:49;;;;;;;34.30;18.60;;;;;;;;;;4996864;28;20512;-82
2022/03/26 06:05:14;;;;;;;33.83;17.75;;;;;;;;;;5000587;28;20026;-81
2022/03/26 06:07:40;;;;;;;38.63;17.83;;;;;;;;;;5001293;28;20036;-82
2022/03/26 06:10:05;;;;;;;37.05;17.95;;;;;;;;;;5000340;28;20037;-81
2022/03/26 06:12:31;;;;;;;40.83;19.67;;;;;;;;;;5000868;28;20048;-81
2022/03/26 06:14:57;;;;;;;38.55;18.48;;;;;;;;;;5001287;28;20034;-82
2022/03/26 06:17:23;;;;;;;34.95;17.63;;;;;;;;;;4986426;28;20026;-81
2022/03/26 06:19:49;;;;;;;34.92;17.48;;;;;;;;;;4982583;28;20041;-83
2022/03/26 06:22:14;;;;;;;39.85;19.15;;;;;;;;;;5014322;28;20030;-83
2022/03/26 06:24:42;;;;;;;41.83;18.80;;;;;;;;;;5000254;28;20489;-81
2022/03/26 06:27:08;;;;;;;38.80;17.42;;;;;;;;;;5002166;28;20034;-80
2022/03/26 06:29:33;;;;;;;38.05;17.30;;;;;;;;;;5004132;28;20034;-80
2022/03/26 06:32:01;;;;;;;40.38;18.10;;;;;;;;;;4998192;28;20042;-82
2022/03/26 06:34:26;;;;;;;43.10;19.60;;;;;;;;;;4997658;28;20037;-80
2022/03/26 06:36:52;;;;;;;36.55;18.13;;;;;;;;;;4999307;28;20097;-82
2022/03/26 06:39:17;;;;;;;38.17;18.85;;;;;;;;;;4999226;28;20062;-83
2022/03/26 06:41:44;;;;;;;38.05;19.13;;;;;;;;;;4997130;28;20054;-81
2022/03/26 06:44:10;;;;;;;37.67;18.02;;;;;;;;;;4982615;28;20100;-78
2022/03/26 06:46:39;;;;;;;40.35;18.88;;;;;;;;;;4999243;28;20022;-81
2022/03/26 06:49:07;;;;;;;36.53;17.27;;;;;;;;;;5002906;28;20041;-82
2022/03/26 06:51:33;;;;;;;37.05;19.25;;;;;;;;;;4999696;28;20077;-81
2022/03/26 06:53:59;;;;;;;38.53;18.60;;;;;;;;;;4996756;28;20034;-82
2022/03/26 06:56:24;;;;;;;38.78;18.42;;;;;;;;;;5005639;28;20070;-81
2022/03/26 06:58:50;;;;;;;36.80;20.48;;;;;;;;;;4982007;28;20054;-83
2022/03/26 07:01:15;;;;;;;30.88;17.30;;;;;;;;;;5000510;28;20448;-83
2022/03/26 07:03:40;;;;;;;33.88;17.88;;;;;;;;;;4999536;28;20030;-83
2022/03/26 07:06:06;;;;;;;33.20;18.50;;;;;;;;;;4998409;28;20433;-81
2022/03/26 07:08:31;;;;;;;33.63;17.77;;;;;;;;;;4998337;28;20089;-81
2022/03/26 07:10:57;;;;;;;31.05;18.30;;;;;;;;;;4999487;28;20101;-83
2022/03/26 07:13:23;;;;;;;37.35;18.45;;;;;;;;;;5000832;28;20030;-81
2022/03/26 07:15:48;;;;;;;33.28;17.48;;;;;;;;;;5006929;28;20025;-81
2022/03/26 07:18:15;;;;;;;34.63;17.65;;;;;;;;;;5000999;28;20026;-83
2022/03/26 07:20:40;;;;;;;32.15;18.20;;;;;;;;;;4982520;28;20041;-79
2022/03/26 07:23:06;;;;;;;41.83;17.58;;;;;;;;;;4999665;28;20034;-83
2022/03/26 07:25:31;;;;;;;35.92;17.88;;;;;;;;;;4999205;28;20437;-81
2022/03/26 07:27:57;;;;;;;44.65;18.30;;;;;;;;;;5001527;28;20044;-84
2022/03/26 07:30:22;;;;;;;31.95;17.08;;;;;;;;;;5003776;28;20049;-83
2022/03/26 07:32:48;;;;;;;35.97;17.98;;;;;;;;;;4985125;28;20030;-83
2022/03/26 07:35:13;;;;;;;31.45;18.15;;;;;;;;;;5002479;28;20061;-82
2022/03/26 07:37:39;;;;;;;36.28;17.80;;;;;;;;;;5002290;28;20496;-84
2022/03/26 07:40:05;;;;;;;33.75;18.02;;;;;;;;;;4995832;28;20030;-84
2022/03/26 07:42:31;;;;;;;34.50;18.13;;;;;;;;;;5001124;28;20046;-84
2022/03/26 07:44:56;;;;;;;29.92;18.27;;;;;;;;;;5000956;28;20022;-80
2022/03/26 07:47:22;;;;;;;35.40;19.00;;;;;;;;;;5010409;28;20018;-81
2022/03/26 07:49:47;;;;;;;33.55;18.95;;;;;;;;;;5008403;28;20030;-83
2022/03/26 07:52:13;;;;;;;36.03;19.30;;;;;;;;;;5002304;28;20105;-84
2022/03/26 07:54:39;;;;;;;31.52;18.17;;;;;;;;;;5002174;28;20022;-83
2022/03/26 07:57:05;;;;;;;30.25;17.60;;;;;;;;;;4985051;28;20058;-83
2022/03/26 07:59:30;;;;;;;37.08;18.08;;;;;;;;;;5011773;28;20026;-84
2022/03/26 08:01:56;;;;;;;32.28;17.45;;;;;;;;;;5002627;28;20037;-84
2022/03/26 08:04:21;;;;;;;33.13;17.40;;;;;;;;;;4984317;28;20026;-82
2022/03/26 08:06:47;;;;;;;81.55;19.83;;;;;;;;;;5003518;28;20417;-81
2022/03/26 08:09:12;;;;;;;70.50;18.40;;;;;;;;;;5001711;28;20650;-84
2022/03/26 08:11:38;;;;;;;31.85;16.42;;;;;;;;;;4987466;28;20033;-82
2022/03/26 08:14:03;;;;;;;31.38;16.75;;;;;;;;;;5009458;28;20026;-82
2022/03/26 08:16:29;;;;;;;32.38;16.58;;;;;;;;;;5014379;28;20588;-83
2022/03/26 08:18:54;;;;;;;31.45;17.00;;;;;;;;;;4994945;28;20432;-83
2022/03/26 08:21:20;;;;;;;29.45;16.75;;;;;;;;;;5019472;28;20022;-83
2022/03/26 08:23:46;;;;;;;30.58;16.48;;;;;;;;;;5021847;28;20018;-82
2022/03/26 08:26:26;;;;;;;31.63;17.02;;;;;;;;;;5022592;28;20033;-84
2022/03/26 08:28:54;;;;;;;29.55;16.83;;;;;;;;;;5011209;28;20033;-82
2022/03/26 08:31:22;;;;;;;35.08;17.08;;;;;;;;;;4993113;28;20041;-83
2022/03/26 08:33:48;;;;;;;32.83;15.82;;;;;;;;;;4984816;28;20404;-81
2022/03/26 08:36:15;;;;;;;32.30;17.83;;;;;;;;;;4998825;28;20086;-82
2022/03/26 08:38:44;;;;;;;32.65;17.40;;;;;;;;;;5003792;28;20049;-84
2022/03/26 08:41:09;;;;;;;32.30;17.35;;;;;;;;;;5000680;28;20094;-84
2022/03/26 08:43:34;;;;;;;32.42;18.08;;;;;;;;;;4984545;28;20260;-84
2022/03/26 08:46:00;;;;;;;34.92;17.55;;;;;;;;;;5009130;28;20110;-83
2022/03/26 08:48:26;;;;;;;46.80;18.75;;;;;;;;;;5007856;28;20030;-84
2022/03/26 08:50:52;;;;;;;36.83;17.55;;;;;;;;;;4989796;28;20455;-83
2022/03/26 08:53:18;;;;;;;36.30;18.92;;;;;;;;;;5002605;28;20030;-81
2022/03/26 08:55:43;;;;;;;39.45;17.98;;;;;;;;;;5007063;28;20392;-83
2022/03/26 08:58:09;;;;;;;34.38;18.67;;;;;;;;;;5012296;28;20026;-83
2022/03/26 09:00:35;;;;;;;33.72;18.60;;;;;;;;;;5016288;28;20392;-81
2022/03/26 09:03:02;;;;;;;36.88;17.60;;;;;;;;;;5011970;28;20054;-84
2022/03/26 09:05:28;;;;;;;35.72;17.90;;;;;;;;;;5001777;28;20030;-82
2022/03/26 09:07:54;;;;;;;32.83;17.42;;;;;;;;;;5007893;28;20037;-82
2022/03/26 09:10:20;;;;;;;40.15;18.88;;;;;;;;;;5007977;28;20030;-81
2022/03/26 09:13:38;;;;;;;37.17;18.08;;;;;;;;;;5007742;28;20030;-82
2022/03/26 09:16:04;;;;;;;37.95;19.50;;;;;;;;;;5006787;28;20096;-82
2022/03/26 09:18:29;;;;;;;31.98;17.08;;;;;;;;;;5012677;28;20022;-81
2022/03/26 09:20:55;;;;;;;32.95;18.00;;;;;;;;;;5009195;28;20062;-81
2022/03/26 09:23:21;;;;;;;39.90;19.38;;;;;;;;;;4990142;28;20030;-80
2022/03/26 09:25:46;;;;;;;37.75;18.75;;;;;;;;;;4991753;28;20090;-82
2022/03/26 09:28:12;;;;;;;34.03;18.25;;;;;;;;;;5014014;28;20026;-82
2022/03/26 09:30:37;;;;;;;43.72;18.73;;;;;;;;;;5008478;28;20026;-82
2022/03/26 09:33:03;;;;;;;34.92;18.65;;;;;;;;;;5008427;28;20030;-82
2022/03/26 09:35:29;;;;;;;33.83;17.58;;;;;;;;;;5005855;28;20022;-81
2022/03/26 09:37:55;;;;;;;32.17;17.42;;;;;;;;;;4989873;28;20022;-81
2022/03/26 09:40:23;;;;;;;41.75;18.88;;;;;;;;;;5011514;28;20030;-81
2022/03/26 09:42:49;;;;;;;40.38;18.00;;;;;;;;;;4989825;28;20073;-83
2022/03/26 09:45:15;;;;;;;39.95;18.40;;;;;;;;;;5007578;28;20049;-83
2022/03/26 09:47:40;;;;;;;37.00;19.38;;;;;;;;;;5014083;28;20045;-84
2022/03/26 09:50:07;;;;;;;34.08;18.42;;;;;;;;;;5014626;28;20030;-84
2022/03/26 09:52:33;;;;;;;33.38;18.33;;;;;;;;;;5001914;28;20501;-81
2022/03/26 09:54:59;;;;;;;44.42;17.85;;;;;;;;;;5009029;28;20041;-84
2022/03/26 09:57:25;;;;;;;33.38;17.63;;;;;;;;;;4986960;28;20544;-81
2022/03/26 09:59:50;;;;;;;34.38;19.52;;;;;;;;;;4991903;28;20061;-81
2022/03/26 10:02:16;;;;;;;34.92;18.08;;;;;;;;;;4993456;28;20030;-81
2022/03/26 10:04:43;;;;;;;35.50;18.27;;;;;;;;;;4976377;28;20070;-83
2022/03/26 10:07:09;;;;;;;34.67;19.40;;;;;;;;;;4974147;28;20038;-81
2022/03/26 10:09:37;;;;;;;42.22;19.40;;;;;;;;;;4992015;28;20085;-82
2022/03/26 10:12:11;;;;;;;37.35;19.60;;;;;;;;;;4995311;28;20038;-82
2022/03/26 10:14:57;;;;;;;35.03;18.58;;;;;;;;;;4995098;28;20042;-81
2022/03/26 10:17:33;;;;;;;30.92;18.17;;;;;;;;;;5003602;28;20041;-81
2022/03/26 10:20:14;;;;;;;36.85;16.98;;;;;;;;;;5015010;28;20025;-82
2022/03/26 10:22:41;;;;;;;41.28;19.52;;;;;;;;;;5010018;28;20025;-82
2022/03/26 10:25:10;;;;;;;35.97;19.13;;;;;;;;;;4985240;28;20030;-84
2022/03/26 10:27:44;;;;;;;43.53;18.73;;;;;;;;;;4984075;28;20034;-84
2022/03/26 10:33:30;;;;;;;38.95;19.45;;;;;;;;;;4991763;28;20092;-80
2022/03/26 10:35:57;;;;;;;37.05;18.08;;;;;;;;;;4997544;28;20087;-81
2022/03/26 10:38:42;;;;;;;35.83;18.98;;;;;;;;;;4986451;28;20035;-86
2022/03/26 10:41:09;;;;;;;38.05;20.35;;;;;;;;;;5004024;28;20101;-79
2022/03/26 10:43:39;;;;;;;40.70;19.85;;;;;;;;;;4992995;28;20101;-81
2022/03/26 10:46:05;;;;;;;40.75;19.20;;;;;;;;;;5005054;28;20034;-82
2022/03/26 10:48:33;;;;;;;36.15;19.30;;;;;;;;;;5009322;28;20030;-81
2022/03/26 10:51:01;;;;;;;39.63;20.17;;;;;;;;;;5002964;28;20025;-81
2022/03/26 10:53:34;;;;;;;35.13;18.88;;;;;;;;;;5013116;28;20404;-80
2022/03/26 10:56:02;;;;;;;36.67;17.40;;;;;;;;;;4997910;28;20038;-81
2022/03/26 10:58:29;;;;;;;37.85;19.23;;;;;;;;;;5005637;28;20079;-82
2022/03/26 11:00:54;;;;;;;37.13;19.50;;;;;;;;;;5003001;28;20034;-83
2022/03/26 11:03:20;;;;;;;37.08;19.10;;;;;;;;;;5001858;28;20045;-85
2022/03/26 11:05:46;;;;;;;30.08;15.32;;;;;;;;;;5001844;28;20044;-82
2022/03/26 11:08:13;;;;;;;29.50;16.60;;;;;;;;;;5008505;28;20039;-83
2022/03/26 11:10:39;;;;;;;33.83;18.13;;;;;;;;;;5009539;28;20029;-83
2022/03/26 11:13:10;;;;;;;38.03;17.95;;;;;;;;;;5008360;28;20030;-82
2022/03/26 11:15:46;;;;;;;32.63;17.15;;;;;;;;;;5007759;28;20021;-80
2022/03/26 11:18:33;;;;;;;34.38;15.10;;;;;;;;;;5005332;28;20050;-83
2022/03/26 11:21:17;;;;;;;33.13;17.13;;;;;;;;;;5015991;28;20030;-82
2022/03/26 11:23:58;;;;;;;37.92;15.77;;;;;;;;;;5007795;28;20026;-84
2022/03/26 11:26:26;;;;;;;31.67;14.32;;;;;;;;;;4989531;28;20045;-83
2022/03/26 11:28:59;;;;;;;30.50;15.65;;;;;;;;;;5007093;28;20081;-80
2022/03/26 11:31:31;;;;;;;29.65;15.50;;;;;;;;;;5000358;28;20034;-79
2022/03/26 11:34:05;;;;;;;30.80;14.70;;;;;;;;;;4997656;28;20044;-80
2022/03/26 11:36:31;;;;;;;26.88;14.63;;;;;;;;;;5008529;28;20454;-79
2022/03/26 11:39:09;;;;;;;28.25;16.15;;;;;;;;;;4995613;28;20030;-79
2022/03/26 11:41:35;;;;;;;45.20;15.85;;;;;;;;;;4985754;28;20034;-80
2022/03/26 11:44:01;;;;;;;31.40;15.50;;;;;;;;;;4996500;28;20163;-81
2022/03/26 11:52:27;;;;;;;28.70;14.98;;;;;;;;;;5010918;28;20079;-79
2022/03/26 11:55:00;;;;;;;25.05;13.93;;;;;;;;;;4990397;28;20027;-81
2022/03/26 11:57:26;;;;;;;24.38;13.75;;;;;;;;;;4978101;28;20026;-80
2022/03/26 12:00:24;;;;;;;24.30;14.15;;;;;;;;;;5001134;28;20026;-80
2022/03/26 12:02:53;;;;;;;26.13;13.43;;;;;;;;;;5006563;28;20473;-84
2022/03/26 12:08:39;;;;;;;38.28;13.80;;;;;;;;;;5000615;28;20033;-84
2022/03/26 12:11:04;;;;;;;25.20;13.60;;;;;;;;;;5000823;28;20049;-83
2022/03/26 12:13:34;;;;;;;26.45;13.73;;;;;;;;;;5001296;28;20030;-84
2022/03/26 12:16:00;;;;;;;33.90;13.00;;;;;;;;;;5000785;28;20040;-83
2022/03/26 12:18:32;;;;;;;30.55;13.65;;;;;;;;;;4982184;28;20021;-81
2022/03/26 12:21:06;;;;;;;26.08;13.20;;;;;;;;;;4981945;28;20081;-85
2022/03/26 12:23:34;;;;;;;26.02;12.13;;;;;;;;;;4983125;28;20045;-84
2022/03/26 12:26:09;;;;;;;25.25;12.90;;;;;;;;;;4996535;28;20252;-86
2022/03/26 12:28:37;;;;;;;26.08;13.25;;;;;;;;;;5000823;28;20025;-85
2022/03/26 12:31:05;;;;;;;25.23;13.48;;;;;;;;;;4983237;28;20065;-84
2022/03/26 12:33:41;;;;;;;22.85;13.18;;;;;;;;;;4999210;28;20029;-85
2022/03/26 12:36:07;;;;;;;21.90;12.48;;;;;;;;;;5007121;28;20129;-82
2022/03/26 12:38:33;;;;;;;24.75;13.93;;;;;;;;;;4999294;28;20026;-83
2022/03/26 12:41:02;;;;;;;23.73;13.40;;;;;;;;;;4999899;28;20073;-84
2022/03/26 12:43:29;;;;;;;27.60;13.52;;;;;;;;;;5001845;28;20022;-84
2022/03/26 12:45:56;;;;;;;23.95;12.80;;;;;;;;;;5000511;28;20033;-83
2022/03/26 12:48:26;;;;;;;23.27;12.95;;;;;;;;;;4997581;28;20097;-83
2022/03/26 12:50:52;;;;;;;24.70;13.63;;;;;;;;;;5003776;28;20090;-84
2022/03/26 12:53:19;;;;;;;29.40;12.65;;;;;;;;;;5000586;28;20488;-84
2022/03/26 12:55:57;;;;;;;19.70;11.70;;;;;;;;;;4998132;28;20030;-84
2022/03/26 13:01:10;;;;;;;26.48;11.85;;;;;;;;;;4997286;28;20068;-84
2022/03/26 13:03:36;;;;;;;21.23;11.55;;;;;;;;;;4983211;28;20034;-83
2022/03/26 13:06:07;;;;;;;22.83;11.70;;;;;;;;;;4982327;28;20029;-82
2022/03/26 13:08:33;;;;;;;20.27;11.10;;;;;;;;;;5000914;28;20030;-84
2022/03/26 13:11:09;;;;;;;23.98;10.82;;;;;;;;;;4981952;28;20034;-84
2022/03/26 13:13:46;;;;;;;18.65;11.38;;;;;;;;;;4980205;28;20026;-84
2022/03/26 13:16:15;;;;;;;21.33;11.25;;;;;;;;;;4998641;28;20062;-84
2022/03/26 13:18:55;;;;;;;20.50;11.63;;;;;;;;;;4998422;28;20033;-84
2022/03/26 13:21:21;;;;;;;23.77;12.77;;;;;;;;;;4995464;28;20058;-84
2022/03/26 13:23:54;;;;;;;23.55;12.00;;;;;;;;;;4999612;28;20396;-84
2022/03/26 13:26:19;;;;;;;22.80;11.88;;;;;;;;;;4999946;28;20077;-84
2022/03/26 13:29:19;;;;;;;22.33;10.73;;;;;;;;;;4987035;28;20046;-84
2022/03/26 13:31:49;;;;;;;20.83;11.30;;;;;;;;;;4982969;28;20037;-82
2022/03/26 13:34:17;;;;;;;24.55;11.70;;;;;;;;;;5000919;28;20061;-85
2022/03/26 13:36:46;;;;;;;18.92;10.98;;;;;;;;;;4986880;28;20174;-83
2022/03/26 13:39:27;;;;;;;27.65;10.48;;;;;;;;;;4987569;28;20728;-83
2022/03/26 13:41:54;;;;;;;24.85;10.38;;;;;;;;;;5005287;28;20026;-85
2022/03/26 13:44:21;;;;;;;22.00;11.95;;;;;;;;;;4985817;28;20029;-80
2022/03/26 13:46:47;;;;;;;20.83;10.80;;;;;;;;;;5001875;28;20078;-82
2022/03/26 13:49:27;;;;;;;17.75;10.65;;;;;;;;;;5009245;28;20018;-81
2022/03/26 13:51:53;;;;;;;20.23;11.23;;;;;;;;;;5024470;28;20025;-83
2022/03/26 13:54:34;;;;;;;23.08;11.45;;;;;;;;;;4987196;28;20081;-83
2022/03/26 13:57:01;;;;;;;19.88;10.48;;;;;;;;;;5005601;28;20056;-81
2022/03/26 13:59:27;;;;;;;21.98;10.88;;;;;;;;;;4995236;28;20030;-81
2022/03/26 14:01:54;;;;;;;28.70;11.60;;;;;;;;;;4971074;28;20388;-81
2022/03/26 14:04:25;;;;;;;23.67;11.27;;;;;;;;;;4993802;28;20051;-80
2022/03/26 14:06:52;;;;;;;18.80;10.23;;;;;;;;;;4985007;28;20015;-80
2022/03/26 14:09:29;;;;;;;27.02;11.77;;;;;;;;;;4980469;28;20090;-80
2022/03/26 14:11:55;;;;;;;19.25;10.98;;;;;;;;;;4994675;28;20022;-79
2022/03/26 14:14:20;;;;;;;20.08;10.57;;;;;;;;;;4999522;28;20057;-80
2022/03/26 14:16:46;;;;;;;20.20;11.07;;;;;;;;;;4997853;28;20022;-79
2022/03/26 14:19:11;;;;;;;23.30;11.88;;;;;;;;;;5006713;28;20333;-79
2022/03/26 14:21:37;;;;;;;22.65;11.23;;;;;;;;;;5006092;28;20038;-81
2022/03/26 14:24:03;;;;;;;19.88;11.30;;;;;;;;;;4998526;28;20061;-80
2022/03/26 14:26:28;;;;;;;18.33;10.48;;;;;;;;;;4997553;28;20046;-81
2022/03/26 14:28:53;;;;;;;18.70;10.40;;;;;;;;;;5010522;28;20432;-80
2022/03/26 14:31:19;;;;;;;19.00;10.18;;;;;;;;;;4999261;28;20027;-80
2022/03/26 14:33:46;;;;;;;17.58;9.57;;;;;;;;;;4998267;28;20028;-81
2022/03/26 14:36:11;;;;;;;19.40;10.73;;;;;;;;;;5000198;28;20022;-79
2022/03/26 14:38:37;;;;;;;19.08;10.68;;;;;;;;;;5000538;28;20053;-81
2022/03/26 14:41:03;;;;;;;26.42;11.48;;;;;;;;;;4999396;28;20030;-81
2022/03/26 14:43:32;;;;;;;19.83;10.80;;;;;;;;;;4996122;28;20040;-81
2022/03/26 14:45:58;;;;;;;20.25;10.65;;;;;;;;;;4978175;28;20045;-79
2022/03/26 14:48:23;;;;;;;19.58;9.77;;;;;;;;;;5000162;28;20469;-81
2022/03/26 14:50:48;;;;;;;27.30;10.90;;;;;;;;;;5009014;28;20033;-80
2022/03/26 14:53:15;;;;;;;16.10;9.43;;;;;;;;;;5016533;28;20423;-81
2022/03/26 14:55:41;;;;;;;19.70;10.88;;;;;;;;;;4991407;28;20026;-80
2022/03/26 14:58:07;;;;;;;23.30;11.18;;;;;;;;;;5013703;28;20516;-80
2022/03/26 15:00:34;;;;;;;20.25;10.90;;;;;;;;;;4996591;28;20037;-79
2022/03/26 15:03:01;;;;;;;20.92;11.00;;;;;;;;;;4979525;28;20030;-80
2022/03/26 15:05:27;;;;;;;22.98;11.68;;;;;;;;;;4997057;28;20046;-80
2022/03/26 15:07:53;;;;;;;21.20;11.25;;;;;;;;;;4979359;28;20030;-81
2022/03/26 15:10:19;;;;;;;16.73;10.57;;;;;;;;;;4996612;28;20034;-80
2022/03/26 15:12:44;;;;;;;22.88;10.75;;;;;;;;;;4979358;28;20061;-81
2022/03/26 15:15:10;;;;;;;19.27;10.20;;;;;;;;;;4994432;28;20298;-80
2022/03/26 15:17:36;;;;;;;19.95;10.88;;;;;;;;;;5000463;28;20021;-82
2022/03/26 15:20:02;;;;;;;19.48;11.07;;;;;;;;;;5004164;28;20030;-80
2022/03/26 15:22:27;;;;;;;17.30;10.00;;;;;;;;;;4996537;28;20026;-80
2022/03/26 15:24:54;;;;;;;18.00;9.93;;;;;;;;;;4995613;28;20085;-81
2022/03/26 15:27:19;;;;;;;16.95;10.02;;;;;;;;;;4998542;28;20013;-81
2022/03/26 15:29:45;;;;;;;19.25;10.88;;;;;;;;;;5000081;28;20034;-79
2022/03/26 15:32:10;;;;;;;23.67;11.45;;;;;;;;;;4994900;28;20101;-82
2022/03/26 15:34:37;;;;;;;22.20;11.43;;;;;;;;;;5003623;28;20436;-80
2022/03/26 15:37:03;;;;;;;23.13;11.40;;;;;;;;;;5013575;28;20049;-80
2022/03/26 15:39:28;;;;;;;17.17;10.38;;;;;;;;;;5009289;28;20465;-79
2022/03/26 15:41:54;;;;;;;22.88;12.05;;;;;;;;;;4995869;28;20022;-79
2022/03/26 15:44:19;;;;;;;20.40;10.52;;;;;;;;;;4976224;28;20487;-81
2022/03/26 15:46:45;;;;;;;19.63;10.80;;;;;;;;;;4992903;28;20014;-79
2022/03/26 15:49:10;;;;;;;20.60;10.38;;;;;;;;;;5003127;28;20022;-79
2022/03/26 15:51:36;;;;;;;23.83;10.05;;;;;;;;;;5009434;28;20133;-79
2022/03/26 15:54:01;;;;;;;21.60;11.02;;;;;;;;;;5014829;28;20029;-80
2022/03/26 15:56:27;;;;;;;19.20;10.23;;;;;;;;;;4990696;28;20053;-79
2022/03/26 15:58:53;;;;;;;19.10;10.35;;;;;;;;;;4995376;28;20054;-80
2022/03/26 16:01:19;;;;;;;18.20;9.65;;;;;;;;;;4996465;28;20034;-81
2022/03/26 16:03:44;;;;;;;22.83;10.73;;;;;;;;;;4995670;28;20030;-80
2022/03/26 16:06:09;;;;;;;19.15;9.57;;;;;;;;;;4994757;28;20022;-84
2022/03/26 16:08:36;;;;;;;29.67;10.75;;;;;;;;;;4996658;28;20034;-82
2022/03/26 16:11:03;;;;;;;19.65;9.88;;;;;;;;;;4975949;28;20019;-81
2022/03/26 16:13:28;;;;;;;16.65;10.10;;;;;;;;;;4994513;28;20433;-80
2022/03/26 16:15:54;;;;;;;22.85;9.85;;;;;;;;;;5001925;28;20152;-79
2022/03/26 16:18:20;;;;;;;15.93;8.98;;;;;;;;;;4994710;28;20053;-79
2022/03/26 16:20:46;;;;;;;17.60;9.02;;;;;;;;;;5001103;28;20021;-80
2022/03/26 16:23:12;;;;;;;15.95;8.60;;;;;;;;;;4996017;28;20030;-79
2022/03/26 16:25:37;;;;;;;17.23;9.23;;;;;;;;;;4993593;28;20026;-79
2022/03/26 16:28:03;;;;;;;21.83;8.63;;;;;;;;;;4994915;28;20029;-79
2022/03/26 16:30:29;;;;;;;21.15;8.90;;;;;;;;;;4995615;28;20018;-80
2022/03/26 16:32:55;;;;;;;18.08;9.20;;;;;;;;;;4998765;28;20022;-79
2022/03/26 16:35:21;;;;;;;12.20;7.72;;;;;;;;;;4990536;28;20033;-80
2022/03/26 16:37:47;;;;;;;17.50;8.32;;;;;;;;;;4988898;28;20026;-79
2022/03/26 16:40:13;;;;;;;21.17;9.38;;;;;;;;;;4994151;28;20026;-80
2022/03/26 16:42:38;;;;;;;15.48;8.38;;;;;;;;;;4993068;28;20097;-79
2022/03/26 16:45:05;;;;;;;17.13;9.10;;;;;;;;;;4992456;28;20026;-79
2022/03/26 16:47:30;;;;;;;17.40;7.57;;;;;;;;;;4992609;28;20168;-79
2022/03/26 16:49:56;;;;;;;15.75;8.55;;;;;;;;;;5009707;28;20473;-80
2022/03/26 16:52:22;;;;;;;14.65;8.35;;;;;;;;;;5002329;28;20038;-78
2022/03/26 16:54:47;;;;;;;17.55;8.13;;;;;;;;;;4992068;28;20448;-79
2022/03/26 16:57:13;;;;;;;15.82;7.93;;;;;;;;;;4992413;28;20018;-79
2022/03/26 16:59:39;;;;;;;15.50;7.30;;;;;;;;;;4992390;28;20488;-79
2022/03/26 17:02:05;;;;;;;13.45;7.40;;;;;;;;;;4992915;28;20030;-79
2022/03/26 17:04:31;;;;;;;16.25;7.70;;;;;;;;;;4984246;28;20022;-78
2022/03/26 17:06:56;;;;;;;12.90;6.80;;;;;;;;;;4996269;28;20700;-78
2022/03/26 17:09:22;;;;;;;12.23;6.75;;;;;;;;;;5013310;28;20026;-81
2022/03/26 17:11:47;;;;;;;14.48;6.90;;;;;;;;;;4997251;28;20121;-80
2022/03/26 17:14:12;;;;;;;13.95;7.15;;;;;;;;;;4980445;28;20509;-81
2022/03/26 17:16:44;;;;;;;13.82;7.18;;;;;;;;;;5001251;28;20029;-79
2022/03/26 17:19:13;;;;;;;12.68;6.72;;;;;;;;;;4996955;28;20057;-80
2022/03/26 17:21:39;;;;;;;13.90;7.05;;;;;;;;;;5002608;28;20101;-81
2022/03/26 17:24:07;;;;;;;13.18;7.30;;;;;;;;;;4978357;28;20042;-82
2022/03/26 17:26:33;;;;;;;14.25;6.60;;;;;;;;;;4979034;28;20018;-81
2022/03/26 17:28:59;;;;;;;16.85;7.40;;;;;;;;;;4998537;28;20034;-81
2022/03/26 17:31:24;;;;;;;14.18;6.47;;;;;;;;;;5013941;28;20373;-78
2022/03/26 17:33:53;;;;;;;25.17;7.13;;;;;;;;;;4997007;28;20034;-81
2022/03/26 17:36:19;;;;;;;12.95;6.43;;;;;;;;;;5015438;28;20022;-78
2022/03/26 17:38:44;;;;;;;11.32;6.35;;;;;;;;;;4992981;28;20085;-77
2022/03/26 17:41:10;;;;;;;12.30;6.80;;;;;;;;;;4988960;28;20034;-78
2022/03/26 17:43:35;;;;;;;13.30;6.43;;;;;;;;;;4998126;28;20038;-78
2022/03/26 17:46:02;;;;;;;14.48;7.15;;;;;;;;;;4981200;28;20026;-80
2022/03/26 17:48:28;;;;;;;21.42;6.97;;;;;;;;;;5002262;28;20030;-79
2022/03/26 17:50:53;;;;;;;12.32;5.82;;;;;;;;;;5001156;28;20025;-79
2022/03/26 17:53:19;;;;;;;13.18;6.47;;;;;;;;;;4993667;28;20026;-78
2022/03/26 17:55:44;;;;;;;19.27;5.78;;;;;;;;;;4995207;28;20115;-79
2022/03/26 17:58:09;;;;;;;34.97;7.28;;;;;;;;;;4997757;28;20480;-79
2022/03/26 18:00:35;;;;;;;21.90;7.00;;;;;;;;;;4998601;28;20049;-83
2022/03/26 18:03:00;;;;;;;18.67;7.30;;;;;;;;;;4998735;28;20085;-79
2022/03/26 18:05:25;;;;;;;19.27;7.70;;;;;;;;;;5014156;28;20465;-82
2022/03/26 18:07:51;;;;;;;16.73;7.68;;;;;;;;;;5012755;28;20385;-82
2022/03/26 18:10:16;;;;;;;15.48;6.57;;;;;;;;;;5001961;28;20040;-81
2022/03/26 18:12:42;;;;;;;21.33;7.32;;;;;;;;;;5000116;28;20405;-81
2022/03/26 18:15:08;;;;;;;23.63;7.57;;;;;;;;;;4998193;28;20034;-78
2022/03/26 18:17:33;;;;;;;19.23;7.57;;;;;;;;;;5001664;28;20026;-79
2022/03/26 18:19:59;;;;;;;16.80;7.28;;;;;;;;;;4996552;28;20030;-78
2022/03/26 18:22:24;;;;;;;16.23;7.13;;;;;;;;;;4999990;28;20018;-79
2022/03/26 18:24:51;;;;;;;22.75;8.02;;;;;;;;;;4999861;28;20049;-82
2022/03/26 18:27:18;;;;;;;18.60;7.47;;;;;;;;;;4982261;28;20024;-78
2022/03/26 18:29:43;;;;;;;18.85;7.13;;;;;;;;;;5004176;28;20022;-80
2022/03/26 18:32:09;;;;;;;14.32;6.43;;;;;;;;;;4998687;28;20481;-79
2022/03/26 18:34:35;;;;;;;16.52;6.60;;;;;;;;;;4995768;28;20026;-78
2022/03/26 18:37:01;;;;;;;13.77;6.22;;;;;;;;;;4994114;28;20026;-78
2022/03/26 18:39:27;;;;;;;14.80;6.68;;;;;;;;;;5000120;28;20036;-78
2022/03/26 18:41:53;;;;;;;16.05;6.15;;;;;;;;;;5009178;28;20018;-78
2022/03/26 18:44:19;;;;;;;21.55;7.60;;;;;;;;;;4996987;28;20033;-81
2022/03/26 18:46:45;;;;;;;18.58;6.95;;;;;;;;;;4997668;28;20015;-80
2022/03/26 18:49:12;;;;;;;23.33;7.70;;;;;;;;;;4997079;28;20034;-79
2022/03/26 18:51:40;;;;;;;24.80;7.60;;;;;;;;;;4986774;28;20026;-80
2022/03/26 18:54:06;;;;;;;23.55;7.15;;;;;;;;;;4995702;28;20061;-81
2022/03/26 18:56:32;;;;;;;23.52;8.25;;;;;;;;;;4996188;28;20033;-81
2022/03/26 18:59:06;;;;;;;25.13;8.50;;;;;;;;;;4994871;28;20050;-80
2022/03/26 19:01:32;;;;;;;23.10;7.80;;;;;;;;;;4994644;28;20030;-81
2022/03/26 19:03:57;;;;;;;25.42;8.50;;;;;;;;;;4995001;28;20037;-80
2022/03/26 19:06:22;;;;;;;27.33;8.93;;;;;;;;;;4996833;28;20069;-80
2022/03/26 19:08:48;;;;;;;18.25;7.70;;;;;;;;;;4979549;28;20022;-80
2022/03/26 19:11:13;;;;;;;17.50;7.25;;;;;;;;;;4995327;28;20043;-80
2022/03/26 19:13:39;;;;;;;22.20;7.97;;;;;;;;;;4995843;28;20052;-78
2022/03/26 19:16:04;;;;;;;21.90;7.65;;;;;;;;;;5001683;28;20049;-80
2022/03/26 19:18:30;;;;;;;24.15;9.10;;;;;;;;;;4994037;28;20544;-79
2022/03/26 19:20:55;;;;;;;60.70;9.50;;;;;;;;;;4999859;28;20026;-79
2022/03/26 19:23:21;;;;;;;25.40;8.45;;;;;;;;;;4993160;28;20106;-80
2022/03/26 19:25:47;;;;;;;17.05;7.28;;;;;;;;;;4993205;28;20046;-78
2022/03/26 19:28:14;;;;;;;21.00;7.78;;;;;;;;;;4995086;28;20065;-79
2022/03/26 19:30:39;;;;;;;24.08;7.53;;;;;;;;;;4995270;28;20140;-78
2022/03/26 19:33:05;;;;;;;19.13;7.65;;;;;;;;;;4994809;28;20385;-79
2022/03/26 19:35:31;;;;;;;21.73;8.20;;;;;;;;;;4994511;28;20027;-78
2022/03/26 19:37:58;;;;;;;23.88;7.60;;;;;;;;;;4997667;28;20133;-78
2022/03/26 19:40:24;;;;;;;32.90;8.20;;;;;;;;;;4996313;28;20030;-78
2022/03/26 19:42:50;;;;;;;19.17;7.85;;;;;;;;;;4993069;28;20060;-77
2022/03/26 19:45:15;;;;;;;21.58;8.48;;;;;;;;;;4993026;28;20035;-81